SCBA/BBA METAR and TAF weather

Enter ICAO airport designator
Station Type Date Time Source
SCBA METAR 2021/05/14 13:00 UTC NOAA

SCBA 141300Z 00000KT 9999 BKN090 M03/M04 Q1015


Station Type Date Time Source
SCBA Decoded METAR 2021/05/14 13:00 UTC NOAA

Balmaceda, Chile (SCBA) 45-55S 071-41W 520M
May 14, 2021 - 09:00 AM EDT / 2021.05.14 1300 UTC
Wind: Calm:0
Visibility: greater than 7 mile(s):0
Sky conditions: mostly cloudy
Temperature: 26 F (-3 C)
Dew Point: 24 F (-4 C)
Relative Humidity: 92%
Pressure (altimeter): 29.97 in. Hg (1015 hPa)
ob: SCBA 141300Z 00000KT 9999 BKN090 M03/M04 Q1015
cycle: 13

Station Type Date Time Source
SCBA TAF 2021/05/14 12:07 UTC NOAA

TAF SCBA 141039Z 1412/1512 12006KT CAVOK TX10/1419Z TN00/1503Z
TEMPO 1416/1420 8000 -RA SCT030 BKN050
BECMG 1421/1423 31008KT BKN030
TEMPO 1500/1505 7000 -SHRA

Example: see airport list